createdAt,value
2019-05-19T00:00:29.625Z,15.10
2019-05-19T00:02:56.907Z,15.10
2019-05-19T00:05:24.282Z,15.10
2019-05-19T00:07:51.640Z,15.10
2019-05-19T00:10:18.863Z,15.10
2019-05-19T00:12:46.146Z,15.00
2019-05-19T00:15:13.484Z,15.10
2019-05-19T00:18:00.203Z,14.90
2019-05-19T00:20:27.434Z,14.80
2019-05-19T00:22:54.767Z,14.80
2019-05-19T00:25:22.033Z,14.70
2019-05-19T00:27:49.408Z,14.80
2019-05-19T00:30:16.649Z,14.80
2019-05-19T00:32:43.925Z,14.90
2019-05-19T00:35:11.359Z,15.00
2019-05-19T00:37:38.597Z,15.00
2019-05-19T00:40:05.931Z,14.80
2019-05-19T00:42:33.197Z,14.80
2019-05-19T00:45:00.426Z,14.80
2019-05-19T00:47:27.712Z,14.70
2019-05-19T00:49:55.188Z,14.70
2019-05-19T00:52:22.455Z,14.60
2019-05-19T00:54:49.707Z,14.70
2019-05-19T00:57:16.957Z,14.70
2019-05-19T00:59:45.074Z,14.70
2019-05-19T01:02:12.344Z,14.70
2019-05-19T01:04:39.567Z,14.50
2019-05-19T01:07:06.784Z,14.60
2019-05-19T01:09:34.024Z,14.50
2019-05-19T01:12:01.243Z,14.60
2019-05-19T01:14:28.475Z,14.60
2019-05-19T01:16:55.719Z,14.60
2019-05-19T01:19:22.964Z,14.60
2019-05-19T01:21:50.908Z,14.60
2019-05-19T01:24:18.275Z,14.50
2019-05-19T01:26:45.547Z,14.60
2019-05-19T01:29:12.915Z,14.50
2019-05-19T01:31:40.231Z,14.50
2019-05-19T01:34:07.560Z,14.60
2019-05-19T01:36:34.802Z,14.50
2019-05-19T01:39:02.067Z,14.70
2019-05-19T01:41:29.355Z,14.50
2019-05-19T01:43:56.683Z,14.60
2019-05-19T01:46:24.171Z,14.60
2019-05-19T01:48:51.448Z,14.50
2019-05-19T01:51:18.720Z,14.50
2019-05-19T01:53:45.951Z,14.50
2019-05-19T01:56:13.196Z,14.50
2019-05-19T01:58:40.408Z,14.40
2019-05-19T02:01:07.636Z,14.40
2019-05-19T02:03:35.823Z,14.40
2019-05-19T02:06:03.481Z,14.40
2019-05-19T02:08:31.925Z,14.40
2019-05-19T02:10:59.649Z,14.30
2019-05-19T02:13:27.316Z,14.30
2019-05-19T02:15:55.002Z,14.40
2019-05-19T02:18:25.253Z,14.40
2019-05-19T02:20:52.525Z,14.40
2019-05-19T02:23:19.766Z,14.40
2019-05-19T02:25:46.999Z,14.40
2019-05-19T02:28:14.235Z,14.40
2019-05-19T02:30:41.461Z,14.40
2019-05-19T02:33:08.786Z,14.40
2019-05-19T02:35:36.036Z,14.40
2019-05-19T02:38:03.284Z,14.40
2019-05-19T02:40:32.357Z,14.40
2019-05-19T02:43:00.707Z,14.30
2019-05-19T02:45:30.746Z,14.40
2019-05-19T02:47:59.195Z,14.30
2019-05-19T02:50:28.436Z,14.30
2019-05-19T02:52:56.310Z,14.20
2019-05-19T02:55:24.331Z,14.30
2019-05-19T02:57:52.963Z,14.30
2019-05-19T03:00:32.294Z,14.40
2019-05-19T03:02:59.556Z,14.30
2019-05-19T03:05:26.828Z,14.20
2019-05-19T03:07:54.164Z,14.20
2019-05-19T03:10:21.401Z,14.20
2019-05-19T03:12:48.721Z,14.20
2019-05-19T03:15:15.997Z,14.10
2019-05-19T03:17:43.387Z,14.10
2019-05-19T03:20:10.719Z,14.00
2019-05-19T03:22:37.964Z,14.10
2019-05-19T03:25:05.590Z,14.20
2019-05-19T03:27:32.803Z,14.10
2019-05-19T03:30:19.597Z,14.10
2019-05-19T03:32:51.605Z,14.10
2019-05-19T03:35:18.851Z,14.00
2019-05-19T03:37:46.194Z,14.10
2019-05-19T03:40:19.198Z,14.10
2019-05-19T03:42:47.571Z,13.90
2019-05-19T03:45:14.827Z,14.10
2019-05-19T03:47:42.154Z,14.00
2019-05-19T03:50:09.387Z,14.00
2019-05-19T03:52:36.680Z,14.10
2019-05-19T03:55:04.164Z,14.10
2019-05-19T03:57:31.381Z,14.10
2019-05-19T03:59:58.635Z,14.10
2019-05-19T04:02:25.882Z,14.20
2019-05-19T04:04:53.219Z,14.10
2019-05-19T04:07:20.455Z,14.10
2019-05-19T04:09:47.712Z,14.20
2019-05-19T04:12:15.040Z,14.20
2019-05-19T04:14:42.251Z,14.20
2019-05-19T04:17:09.525Z,14.10
2019-05-19T04:19:36.887Z,14.20
2019-05-19T04:22:04.266Z,14.20
2019-05-19T04:24:31.908Z,14.10
2019-05-19T04:26:59.280Z,14.10
2019-05-19T04:29:26.536Z,14.10
2019-05-19T04:31:53.772Z,14.10
2019-05-19T04:34:21.013Z,14.10
2019-05-19T04:36:48.247Z,14.10
2019-05-19T04:39:15.479Z,14.20
2019-05-19T04:41:42.784Z,14.30
2019-05-19T04:44:10.132Z,14.10
2019-05-19T04:46:37.350Z,14.00
2019-05-19T04:49:04.567Z,14.00
2019-05-19T04:51:31.799Z,14.10
2019-05-19T04:53:59.045Z,14.00
2019-05-19T04:56:26.432Z,14.20
2019-05-19T04:58:53.651Z,14.20
2019-05-19T05:01:20.892Z,14.20
2019-05-19T05:03:48.100Z,14.40
2019-05-19T05:06:15.397Z,14.30
2019-05-19T05:08:42.739Z,14.10
2019-05-19T05:11:09.998Z,14.10
2019-05-19T05:13:37.248Z,14.10
2019-05-19T05:16:04.486Z,14.20
2019-05-19T05:18:31.716Z,14.10
2019-05-19T05:20:58.960Z,14.20
2019-05-19T05:23:26.239Z,14.10
2019-05-19T05:25:53.463Z,14.20
2019-05-19T05:28:20.686Z,14.20
2019-05-19T05:30:47.925Z,14.40
2019-05-19T05:33:15.154Z,14.40
2019-05-19T05:35:42.432Z,14.30
2019-05-19T05:38:09.764Z,14.40
2019-05-19T05:40:36.983Z,14.50
2019-05-19T05:43:04.261Z,14.40
2019-05-19T05:45:31.627Z,14.40
2019-05-19T05:47:58.939Z,14.40
2019-05-19T05:50:26.183Z,14.40
2019-05-19T05:52:53.483Z,14.50
2019-05-19T05:55:20.736Z,14.40
2019-05-19T05:57:47.959Z,14.50
2019-05-19T06:00:16.084Z,14.60
2019-05-19T06:02:45.358Z,14.70
2019-05-19T06:05:12.720Z,14.70
2019-05-19T06:07:40.102Z,14.70
2019-05-19T06:10:07.654Z,14.90
2019-05-19T06:12:34.951Z,15.00
2019-05-19T06:15:02.307Z,15.10
2019-05-19T06:17:29.539Z,15.10
2019-05-19T06:19:56.818Z,15.30
2019-05-19T06:22:24.080Z,15.30
2019-05-19T06:24:51.412Z,15.40
2019-05-19T06:27:18.797Z,15.50
2019-05-19T06:29:46.139Z,15.40
2019-05-19T06:32:29.472Z,15.60
2019-05-19T06:34:56.704Z,15.60
2019-05-19T06:37:23.980Z,15.60
2019-05-19T06:39:51.404Z,15.60
2019-05-19T06:42:18.656Z,15.60
2019-05-19T06:44:45.920Z,15.60
2019-05-19T06:47:13.164Z,15.50
2019-05-19T06:49:40.403Z,15.60
2019-05-19T06:52:07.637Z,15.70
2019-05-19T06:54:39.100Z,15.70
2019-05-19T06:57:06.406Z,15.70
2019-05-19T06:59:34.283Z,15.50
2019-05-19T07:02:01.679Z,15.70
2019-05-19T07:04:29.033Z,15.70
2019-05-19T07:06:58.999Z,15.70
2019-05-19T07:09:26.743Z,15.80
2019-05-19T07:11:54.196Z,15.90
2019-05-19T07:14:21.531Z,16.10
2019-05-19T07:16:50.906Z,16.30
2019-05-19T07:19:18.181Z,16.40
2019-05-19T07:21:46.666Z,16.80
2019-05-19T07:24:17.271Z,17.00
2019-05-19T07:26:44.531Z,17.20
2019-05-19T07:29:12.646Z,17.30
2019-05-19T07:31:39.960Z,17.40
2019-05-19T07:34:09.074Z,17.40
2019-05-19T07:36:36.396Z,17.50
2019-05-19T07:39:05.402Z,17.70
2019-05-19T07:41:33.246Z,17.70
2019-05-19T07:44:01.753Z,17.70
2019-05-19T07:46:29.115Z,18.00
2019-05-19T07:48:56.378Z,18.00
2019-05-19T07:51:23.646Z,18.00
2019-05-19T07:53:51.104Z,18.10
2019-05-19T07:56:18.556Z,18.40
2019-05-19T07:58:45.827Z,18.70
2019-05-19T08:01:13.079Z,18.90
2019-05-19T08:03:40.396Z,19.00
2019-05-19T08:06:09.090Z,19.50
2019-05-19T08:08:36.413Z,19.50
2019-05-19T08:11:03.920Z,19.70
2019-05-19T08:13:31.260Z,19.90
2019-05-19T08:15:58.629Z,20.00
2019-05-19T08:18:25.925Z,19.80
2019-05-19T08:20:54.315Z,20.00
2019-05-19T08:23:21.845Z,20.20
2019-05-19T08:25:49.263Z,20.20
2019-05-19T08:28:16.601Z,20.00
2019-05-19T08:30:43.960Z,20.10
2019-05-19T08:33:11.923Z,20.00
2019-05-19T08:35:39.320Z,19.80
2019-05-19T08:38:06.592Z,19.50
2019-05-19T08:40:34.026Z,19.90
2019-05-19T08:43:01.331Z,20.10
2019-05-19T08:45:28.643Z,20.10
2019-05-19T08:47:55.892Z,20.30
2019-05-19T08:50:23.268Z,20.40
2019-05-19T08:52:50.517Z,20.50
2019-05-19T08:55:17.853Z,20.50
2019-05-19T08:57:45.147Z,20.70
2019-05-19T09:00:12.664Z,20.70
2019-05-19T09:02:39.949Z,20.60
2019-05-19T09:05:07.895Z,20.10
2019-05-19T09:07:35.144Z,20.30
2019-05-19T09:10:02.521Z,20.40
2019-05-19T09:12:29.900Z,20.60
2019-05-19T09:14:57.154Z,20.30
2019-05-19T09:17:24.439Z,20.30
2019-05-19T09:19:51.703Z,20.20
2019-05-19T09:22:19.072Z,20.30
2019-05-19T09:24:46.339Z,20.40
2019-05-19T09:27:13.671Z,20.40
2019-05-19T09:29:41.039Z,20.30
2019-05-19T09:32:08.395Z,20.70
2019-05-19T09:34:35.776Z,20.80
2019-05-19T09:37:03.036Z,21.20
2019-05-19T09:39:30.289Z,21.40
2019-05-19T09:41:57.606Z,21.50
2019-05-19T09:44:24.922Z,21.30
2019-05-19T09:46:54.087Z,21.40
2019-05-19T09:49:34.524Z,21.60
2019-05-19T09:52:03.417Z,21.70
2019-05-19T09:54:43.775Z,21.80
2019-05-19T09:56:59.952Z,21.80
2019-05-19T09:59:27.460Z,21.70
2019-05-19T10:01:54.715Z,21.80
2019-05-19T10:04:22.115Z,21.70
2019-05-19T10:06:49.424Z,21.70
2019-05-19T10:09:49.943Z,22.00
2019-05-19T10:12:17.193Z,22.30
2019-05-19T10:14:44.654Z,22.50
2019-05-19T10:17:12.127Z,22.80
2019-05-19T10:19:39.750Z,22.90
2019-05-19T10:22:07.134Z,23.40
2019-05-19T10:24:34.614Z,24.00
2019-05-19T10:27:02.081Z,24.40
2019-05-19T10:29:29.437Z,25.00
2019-05-19T10:31:56.875Z,25.20
2019-05-19T10:34:43.734Z,25.40
2019-05-19T10:37:11.331Z,25.10
2019-05-19T10:39:38.755Z,25.70
2019-05-19T10:42:06.066Z,25.90
2019-05-19T10:44:33.361Z,25.80
2019-05-19T10:47:02.397Z,25.80
2019-05-19T10:49:29.723Z,25.60
2019-05-19T10:51:56.970Z,25.10
2019-05-19T10:54:24.220Z,24.70
2019-05-19T10:56:51.452Z,24.70
2019-05-19T10:59:18.720Z,24.00
2019-05-19T11:01:45.951Z,23.90
2019-05-19T11:04:13.259Z,23.80
2019-05-19T11:06:40.527Z,23.90
2019-05-19T11:09:07.888Z,24.20
2019-05-19T11:11:35.688Z,24.80
2019-05-19T11:14:03.433Z,25.30
2019-05-19T11:16:30.901Z,25.60
2019-05-19T11:18:59.078Z,26.00
2019-05-19T11:21:26.517Z,25.90
2019-05-19T11:23:54.021Z,26.40
2019-05-19T11:26:21.375Z,26.90
2019-05-19T11:28:48.665Z,27.20
2019-05-19T11:31:16.138Z,27.30
2019-05-19T11:33:43.867Z,27.00
2019-05-19T11:36:11.366Z,26.80
2019-05-19T11:38:39.816Z,26.80
2019-05-19T11:41:07.484Z,27.20
2019-05-19T11:43:34.926Z,26.80
2019-05-19T11:46:02.267Z,25.80
2019-05-19T11:48:29.636Z,25.00
2019-05-19T11:50:57.347Z,24.80
2019-05-19T11:53:24.751Z,24.80
2019-05-19T11:56:05.812Z,24.40
2019-05-19T11:58:22.316Z,24.30
2019-05-19T12:00:49.640Z,24.50
2019-05-19T12:03:18.247Z,25.00
2019-05-19T12:05:47.150Z,25.80
2019-05-19T12:08:14.655Z,26.70
2019-05-19T12:10:42.291Z,27.20
2019-05-19T12:13:09.576Z,27.10
2019-05-19T12:15:36.864Z,26.70
2019-05-19T12:18:04.132Z,26.10
2019-05-19T12:20:31.406Z,25.20
2019-05-19T12:22:58.751Z,24.90
2019-05-19T12:25:26.025Z,24.50
2019-05-19T12:27:53.288Z,24.10
2019-05-19T12:30:20.649Z,24.10
2019-05-19T12:32:47.945Z,24.30
2019-05-19T12:35:15.374Z,24.60
2019-05-19T12:37:42.603Z,25.10
2019-05-19T12:40:09.948Z,25.60
2019-05-19T12:42:37.287Z,26.70
2019-05-19T12:45:04.675Z,27.50
2019-05-19T12:47:31.961Z,28.90
2019-05-19T12:49:59.221Z,30.20
2019-05-19T12:52:26.439Z,30.70
2019-05-19T12:54:53.711Z,31.40
2019-05-19T12:57:21.435Z,31.50
2019-05-19T12:59:48.951Z,31.80
2019-05-19T13:02:16.295Z,31.50
2019-05-19T13:04:43.728Z,31.40
2019-05-19T13:07:10.999Z,31.60
2019-05-19T13:09:38.220Z,31.90
2019-05-19T13:12:05.535Z,31.90
2019-05-19T13:14:33.372Z,31.40
2019-05-19T13:17:00.926Z,31.40
2019-05-19T13:19:28.298Z,31.40
2019-05-19T13:21:56.038Z,31.60
2019-05-19T13:24:23.488Z,31.40
2019-05-19T13:26:56.545Z,31.30
2019-05-19T13:29:19.951Z,31.10
2019-05-19T13:31:47.299Z,31.40
2019-05-19T13:34:14.955Z,31.50
2019-05-19T13:36:42.223Z,31.90
2019-05-19T13:39:09.610Z,31.90
2019-05-19T13:41:37.744Z,32.30
2019-05-19T13:44:05.123Z,32.30
2019-05-19T13:46:32.557Z,32.30
2019-05-19T13:49:00.380Z,32.40
2019-05-19T13:51:27.985Z,32.50
2019-05-19T13:53:55.249Z,32.70
2019-05-19T13:56:22.547Z,32.90
2019-05-19T13:58:49.803Z,33.10
2019-05-19T14:01:28.116Z,32.40
2019-05-19T14:03:46.355Z,32.10
2019-05-19T14:06:13.968Z,32.30
2019-05-19T14:08:41.371Z,32.20
2019-05-19T14:11:08.635Z,32.00
2019-05-19T14:13:35.968Z,31.80
2019-05-19T14:16:03.237Z,31.50
2019-05-19T14:18:30.485Z,31.40
2019-05-19T14:20:57.887Z,31.70
2019-05-19T14:23:25.184Z,31.30
2019-05-19T14:25:52.415Z,31.40
2019-05-19T14:28:19.675Z,31.70
2019-05-19T14:30:47.974Z,32.30
2019-05-19T14:33:15.335Z,32.60
2019-05-19T14:35:42.591Z,32.00
2019-05-19T14:38:09.991Z,31.70
2019-05-19T14:40:37.214Z,31.80
2019-05-19T14:43:04.461Z,31.80
2019-05-19T14:45:31.933Z,31.70
2019-05-19T14:47:59.266Z,31.80
2019-05-19T14:50:26.532Z,32.20
2019-05-19T14:52:55.351Z,32.70
2019-05-19T14:55:22.670Z,32.30
2019-05-19T14:57:50.032Z,31.60
2019-05-19T15:00:17.886Z,31.10
2019-05-19T15:02:45.111Z,30.80
2019-05-19T15:05:12.753Z,30.60
2019-05-19T15:07:40.032Z,29.90
2019-05-19T15:10:08.024Z,29.10
2019-05-19T15:12:35.369Z,28.50
2019-05-19T15:15:02.798Z,27.50
2019-05-19T15:17:30.169Z,26.50
2019-05-19T15:19:57.538Z,26.20
2019-05-19T15:22:24.843Z,25.80
2019-05-19T15:24:52.258Z,25.60
2019-05-19T15:27:19.511Z,25.20
2019-05-19T15:29:48.338Z,25.30
2019-05-19T15:32:16.499Z,25.20
2019-05-19T15:34:43.719Z,25.00
2019-05-19T15:37:10.975Z,25.10
2019-05-19T15:39:38.263Z,24.80
2019-05-19T15:42:05.512Z,24.60
2019-05-19T15:44:32.754Z,24.60
2019-05-19T15:47:00.028Z,24.60
2019-05-19T15:49:27.305Z,24.50
2019-05-19T15:52:02.246Z,24.40
2019-05-19T15:54:23.907Z,24.40
2019-05-19T15:56:51.432Z,24.30
2019-05-19T15:59:18.791Z,24.20
2019-05-19T16:01:46.013Z,24.00
2019-05-19T16:04:13.394Z,24.20
2019-05-19T16:06:40.755Z,24.10
2019-05-19T16:09:08.079Z,24.00
2019-05-19T16:11:35.427Z,24.00
2019-05-19T16:14:02.775Z,24.00
2019-05-19T16:16:30.035Z,24.00
2019-05-19T16:18:57.303Z,24.20
2019-05-19T16:21:24.539Z,24.10
2019-05-19T16:23:51.812Z,24.10
2019-05-19T16:26:19.044Z,24.10
2019-05-19T16:28:46.306Z,24.00
2019-05-19T16:31:13.556Z,24.10
2019-05-19T16:33:40.791Z,24.20
2019-05-19T16:36:08.161Z,24.10
2019-05-19T16:38:35.487Z,24.10
2019-05-19T16:41:02.812Z,24.10
2019-05-19T16:43:30.131Z,24.10
2019-05-19T16:45:57.368Z,24.10
2019-05-19T16:48:24.747Z,23.50
2019-05-19T16:50:52.064Z,23.40
2019-05-19T16:53:20.319Z,23.10
2019-05-19T16:55:47.595Z,22.70
2019-05-19T16:58:21.237Z,22.60
2019-05-19T17:00:44.056Z,22.60
2019-05-19T17:03:11.438Z,22.20
2019-05-19T17:05:38.948Z,21.80
2019-05-19T17:08:06.432Z,21.60
2019-05-19T17:10:33.704Z,21.50
2019-05-19T17:13:01.028Z,21.10
2019-05-19T17:15:28.286Z,20.60
2019-05-19T17:17:55.708Z,20.30
2019-05-19T17:20:22.960Z,19.80
2019-05-19T17:22:50.196Z,19.50
2019-05-19T17:25:17.531Z,19.40
2019-05-19T17:27:44.798Z,19.40
2019-05-19T17:30:12.619Z,19.50
2019-05-19T17:32:39.955Z,19.30
2019-05-19T17:35:07.303Z,19.20
2019-05-19T17:37:34.556Z,19.00
2019-05-19T17:40:01.975Z,18.80
2019-05-19T17:42:29.333Z,18.90
2019-05-19T17:44:56.604Z,18.70
2019-05-19T17:47:23.912Z,18.90
2019-05-19T17:49:51.147Z,18.90
2019-05-19T17:52:18.383Z,18.90
2019-05-19T17:54:45.688Z,18.60
2019-05-19T17:57:32.568Z,18.70
2019-05-19T18:00:00.895Z,18.60
2019-05-19T18:02:28.210Z,18.70
2019-05-19T18:04:55.547Z,18.90
2019-05-19T18:07:22.817Z,18.90
2019-05-19T18:09:50.139Z,19.00
2019-05-19T18:12:17.513Z,18.90
2019-05-19T18:14:44.852Z,18.80
2019-05-19T18:17:12.084Z,18.70
2019-05-19T18:19:39.335Z,18.50
2019-05-19T18:22:07.015Z,18.60
2019-05-19T18:24:34.929Z,18.60
2019-05-19T18:27:02.544Z,18.50
2019-05-19T18:29:31.766Z,18.60
2019-05-19T18:31:59.277Z,18.60
2019-05-19T18:34:26.501Z,18.50
2019-05-19T18:36:53.731Z,18.50
2019-05-19T18:39:21.009Z,18.60
2019-05-19T18:41:48.332Z,18.60
2019-05-19T18:44:15.598Z,18.50
2019-05-19T18:46:43.511Z,18.40
2019-05-19T18:49:10.807Z,18.40
2019-05-19T18:51:38.056Z,18.40
2019-05-19T18:54:05.275Z,18.50
2019-05-19T18:56:32.521Z,18.60
2019-05-19T18:59:00.136Z,18.60
2019-05-19T19:01:28.401Z,18.60
2019-05-19T19:03:55.996Z,18.50
2019-05-19T19:06:28.396Z,18.50
2019-05-19T19:08:55.660Z,18.50
2019-05-19T19:11:22.888Z,18.50
2019-05-19T19:13:50.157Z,18.40
2019-05-19T19:16:17.387Z,18.30
2019-05-19T19:18:45.997Z,18.40
2019-05-19T19:21:13.328Z,18.40
2019-05-19T19:23:40.582Z,18.40
2019-05-19T19:26:07.948Z,18.30
2019-05-19T19:28:35.267Z,18.30
2019-05-19T19:31:02.518Z,18.20
2019-05-19T19:33:29.924Z,18.20
2019-05-19T19:35:57.367Z,18.10
2019-05-19T19:38:24.643Z,18.10
2019-05-19T19:40:54.173Z,18.20
2019-05-19T19:43:21.302Z,18.10
2019-05-19T19:45:48.648Z,18.10
2019-05-19T19:48:16.047Z,18.00
2019-05-19T19:50:43.371Z,18.00
2019-05-19T19:53:10.707Z,17.90
2019-05-19T19:55:37.977Z,18.00
2019-05-19T19:58:05.332Z,17.90
2019-05-19T20:00:40.164Z,17.80
2019-05-19T20:03:07.509Z,17.90
2019-05-19T20:05:34.759Z,17.70
2019-05-19T20:08:02.123Z,17.90
2019-05-19T20:10:29.394Z,17.80
2019-05-19T20:12:56.780Z,18.00
2019-05-19T20:15:24.004Z,17.80
2019-05-19T20:17:51.360Z,17.80
2019-05-19T20:20:18.607Z,17.70
2019-05-19T20:22:45.892Z,17.70
2019-05-19T20:25:13.206Z,17.80
2019-05-19T20:27:40.441Z,17.80
2019-05-19T20:30:07.888Z,17.80
2019-05-19T20:32:35.216Z,17.60
2019-05-19T20:35:02.583Z,17.70
2019-05-19T20:37:29.831Z,17.70
2019-05-19T20:39:57.265Z,17.70
2019-05-19T20:42:24.749Z,17.70
2019-05-19T20:44:52.040Z,17.80
2019-05-19T20:47:19.304Z,17.80
2019-05-19T20:49:46.600Z,17.80
2019-05-19T20:52:13.847Z,17.70
2019-05-19T20:54:41.107Z,17.70
2019-05-19T20:57:08.391Z,17.70
2019-05-19T20:59:35.756Z,17.60
2019-05-19T21:02:03.043Z,17.50
2019-05-19T21:04:30.359Z,17.40
2019-05-19T21:06:57.617Z,17.40
2019-05-19T21:09:24.912Z,17.50
2019-05-19T21:11:52.263Z,17.50
2019-05-19T21:14:19.508Z,17.50
2019-05-19T21:16:46.830Z,17.30
2019-05-19T21:19:14.071Z,17.40
2019-05-19T21:21:41.315Z,17.40
2019-05-19T21:24:08.557Z,17.40
2019-05-19T21:26:35.941Z,17.40
2019-05-19T21:29:03.180Z,17.30
2019-05-19T21:31:30.433Z,17.40
2019-05-19T21:33:57.683Z,17.40
2019-05-19T21:36:24.963Z,17.20
2019-05-19T21:38:52.186Z,17.20
2019-05-19T21:41:19.411Z,17.20
2019-05-19T21:43:46.687Z,17.20
2019-05-19T21:46:13.928Z,17.20
2019-05-19T21:48:41.180Z,17.10
2019-05-19T21:51:08.458Z,17.10
2019-05-19T21:53:36.061Z,17.20
2019-05-19T21:56:03.581Z,17.20
2019-05-19T21:58:31.004Z,17.10
2019-05-19T22:00:58.428Z,17.10
2019-05-19T22:03:25.665Z,17.00
2019-05-19T22:05:53.846Z,17.00
2019-05-19T22:08:21.166Z,16.90
2019-05-19T22:10:48.508Z,16.80
2019-05-19T22:13:15.843Z,16.80
2019-05-19T22:15:43.127Z,16.70
2019-05-19T22:18:10.407Z,16.70
2019-05-19T22:20:37.830Z,16.70
2019-05-19T22:23:05.203Z,16.70
2019-05-19T22:25:32.429Z,16.70
2019-05-19T22:27:59.663Z,16.70
2019-05-19T22:30:26.915Z,16.80
2019-05-19T22:32:54.267Z,16.60
2019-05-19T22:35:21.617Z,16.60
2019-05-19T22:37:48.870Z,16.50
2019-05-19T22:40:16.646Z,16.50
2019-05-19T22:42:44.820Z,16.50
2019-05-19T22:45:12.171Z,16.40
2019-05-19T22:47:39.401Z,16.50
2019-05-19T22:50:07.103Z,16.40
2019-05-19T22:52:34.367Z,16.40
2019-05-19T22:55:01.688Z,16.30
2019-05-19T22:57:28.924Z,16.30
2019-05-19T22:59:56.164Z,16.30
2019-05-19T23:02:23.446Z,16.20
2019-05-19T23:04:50.788Z,16.20
2019-05-19T23:07:18.133Z,16.20
2019-05-19T23:09:45.407Z,16.20
2019-05-19T23:12:12.653Z,16.20
2019-05-19T23:14:39.897Z,16.20
2019-05-19T23:17:07.239Z,16.20
2019-05-19T23:19:34.500Z,16.40
2019-05-19T23:22:01.750Z,16.30
2019-05-19T23:24:28.968Z,16.30
2019-05-19T23:26:56.231Z,16.20
2019-05-19T23:29:23.481Z,16.10
2019-05-19T23:31:50.727Z,16.20
2019-05-19T23:34:18.040Z,16.30
2019-05-19T23:36:45.303Z,16.10
2019-05-19T23:39:12.551Z,16.10
2019-05-19T23:41:39.861Z,16.10
2019-05-19T23:44:07.159Z,16.10
2019-05-19T23:46:34.420Z,16.10
2019-05-19T23:49:01.781Z,16.10
2019-05-19T23:51:29.019Z,16.10
2019-05-19T23:53:56.263Z,16.00
2019-05-19T23:56:23.487Z,15.90
2019-05-19T23:58:50.746Z,15.90
